Weather & Traffic



KLGB 031753Z VRB05KT 9SM CLR 22/13 A2998 RMK AO2 SLP150 T02170133 10217 20139 50000


TAF KLGB 031741Z 0318/0418 00000KT P6SM SKC FM032200 29012KT P6SM BKN200 FM040400 VRB03KT P6SM BKN200 FM040800 VRB04KT P6SM OVC015